sensor_id;sensor_type;location;lat;lon;timestamp;temperature;humidity
12164;DHT22;6145;50.192;10.064;2022-11-20T00:01:21;1.20;90.50
12164;DHT22;6145;50.192;10.064;2022-11-20T00:03:48;1.30;90.60
12164;DHT22;6145;50.192;10.064;2022-11-20T00:06:17;2.20;90.80
12164;DHT22;6145;50.192;10.064;2022-11-20T00:08:45;1.20;90.30
12164;DHT22;6145;50.192;10.064;2022-11-20T00:11:13;1.20;90.40
12164;DHT22;6145;50.192;10.064;2022-11-20T00:13:41;1.20;90.40
12164;DHT22;6145;50.192;10.064;2022-11-20T00:16:10;2.40;91.00
12164;DHT22;6145;50.192;10.064;2022-11-20T00:18:37;1.30;90.40
12164;DHT22;6145;50.192;10.064;2022-11-20T00:21:06;1.30;90.50
12164;DHT22;6145;50.192;10.064;2022-11-20T00:23:34;1.30;90.30
12164;DHT22;6145;50.192;10.064;2022-11-20T00:26:02;1.30;90.30
12164;DHT22;6145;50.192;10.064;2022-11-20T00:28:30;1.30;90.50
12164;DHT22;6145;50.192;10.064;2022-11-20T00:31:01;1.30;90.60
12164;DHT22;6145;50.192;10.064;2022-11-20T00:33:29;1.30;90.40
12164;DHT22;6145;50.192;10.064;2022-11-20T00:35:59;1.30;90.50
12164;DHT22;6145;50.192;10.064;2022-11-20T00:38:27;1.30;90.50
12164;DHT22;6145;50.192;10.064;2022-11-20T00:40:56;1.30;90.40
12164;DHT22;6145;50.192;10.064;2022-11-20T00:43:24;1.30;90.40
12164;DHT22;6145;50.192;10.064;2022-11-20T00:45:55;2.10;90.80
12164;DHT22;6145;50.192;10.064;2022-11-20T00:48:22;1.30;90.50
12164;DHT22;6145;50.192;10.064;2022-11-20T00:50:49;1.30;90.80
12164;DHT22;6145;50.192;10.064;2022-11-20T00:53:16;2.20;90.80
12164;DHT22;6145;50.192;10.064;2022-11-20T00:55:43;1.30;89.90
12164;DHT22;6145;50.192;10.064;2022-11-20T00:58:11;1.20;89.50
12164;DHT22;6145;50.192;10.064;2022-11-20T01:00:38;1.60;89.20
12164;DHT22;6145;50.192;10.064;2022-11-20T01:03:05;1.10;90.20
12164;DHT22;6145;50.192;10.064;2022-11-20T01:05:34;1.10;89.50
12164;DHT22;6145;50.192;10.064;2022-11-20T01:08:01;1.10;90.00
12164;DHT22;6145;50.192;10.064;2022-11-20T01:10:29;2.20;90.60
12164;DHT22;6145;50.192;10.064;2022-11-20T01:12:55;1.10;90.30
12164;DHT22;6145;50.192;10.064;2022-11-20T01:15:37;1.20;90.30
12164;DHT22;6145;50.192;10.064;2022-11-20T01:18:04;2.50;90.90
12164;DHT22;6145;50.192;10.064;2022-11-20T01:20:34;1.20;90.40
12164;DHT22;6145;50.192;10.064;2022-11-20T01:23:01;1.20;90.40
12164;DHT22;6145;50.192;10.064;2022-11-20T01:25:28;2.50;91.00
12164;DHT22;6145;50.192;10.064;2022-11-20T01:27:55;1.20;90.30
12164;DHT22;6145;50.192;10.064;2022-11-20T01:30:22;1.20;90.20
12164;DHT22;6145;50.192;10.064;2022-11-20T01:32:50;1.10;90.20
12164;DHT22;6145;50.192;10.064;2022-11-20T01:35:17;1.20;90.20
12164;DHT22;6145;50.192;10.064;2022-11-20T01:37:44;1.20;90.20
12164;DHT22;6145;50.192;10.064;2022-11-20T01:40:11;1.20;90.30
12164;DHT22;6145;50.192;10.064;2022-11-20T01:42:38;1.20;90.30
12164;DHT22;6145;50.192;10.064;2022-11-20T01:45:56;1.20;90.30
12164;DHT22;6145;50.192;10.064;2022-11-20T01:48:26;1.20;90.20
12164;DHT22;6145;50.192;10.064;2022-11-20T01:50:55;1.20;90.30
12164;DHT22;6145;50.192;10.064;2022-11-20T01:53:25;2.60;90.90
12164;DHT22;6145;50.192;10.064;2022-11-20T01:55:55;1.20;90.20
12164;DHT22;6145;50.192;10.064;2022-11-20T01:58:27;1.20;90.20
12164;DHT22;6145;50.192;10.064;2022-11-20T02:00:56;1.60;90.20
12164;DHT22;6145;50.192;10.064;2022-11-20T02:03:26;2.00;89.70
12164;DHT22;6145;50.192;10.064;2022-11-20T02:05:57;2.90;90.50
12164;DHT22;6145;50.192;10.064;2022-11-20T02:08:28;1.10;90.00
12164;DHT22;6145;50.192;10.064;2022-11-20T02:10:55;2.40;90.60
12164;DHT22;6145;50.192;10.064;2022-11-20T02:13:22;1.10;90.10
12164;DHT22;6145;50.192;10.064;2022-11-20T02:16:10;1.10;90.20
12164;DHT22;6145;50.192;10.064;2022-11-20T02:18:39;1.20;90.20
12164;DHT22;6145;50.192;10.064;2022-11-20T02:21:11;1.10;90.10
12164;DHT22;6145;50.192;10.064;2022-11-20T02:23:52;1.20;90.20
12164;DHT22;6145;50.192;10.064;2022-11-20T02:26:21;1.20;90.30
12164;DHT22;6145;50.192;10.064;2022-11-20T02:28:49;1.20;90.20
12164;DHT22;6145;50.192;10.064;2022-11-20T02:31:17;1.20;90.30
12164;DHT22;6145;50.192;10.064;2022-11-20T02:33:43;1.20;90.10
12164;DHT22;6145;50.192;10.064;2022-11-20T02:36:14;1.70;90.30
12164;DHT22;6145;50.192;10.064;2022-11-20T02:38:41;1.20;90.20
12164;DHT22;6145;50.192;10.064;2022-11-20T02:41:10;1.20;90.20
12164;DHT22;6145;50.192;10.064;2022-11-20T02:43:36;1.20;90.20
12164;DHT22;6145;50.192;10.064;2022-11-20T02:46:06;2.00;90.90
12164;DHT22;6145;50.192;10.064;2022-11-20T02:48:33;1.20;90.10
12164;DHT22;6145;50.192;10.064;2022-11-20T02:51:00;1.20;90.10
12164;DHT22;6145;50.192;10.064;2022-11-20T02:53:27;1.20;90.10
12164;DHT22;6145;50.192;10.064;2022-11-20T02:55:54;1.20;90.10
12164;DHT22;6145;50.192;10.064;2022-11-20T02:58:22;1.30;90.20
12164;DHT22;6145;50.192;10.064;2022-11-20T03:00:49;1.70;90.10
12164;DHT22;6145;50.192;10.064;2022-11-20T03:03:15;1.40;89.70
12164;DHT22;6145;50.192;10.064;2022-11-20T03:05:42;1.20;90.00
12164;DHT22;6145;50.192;10.064;2022-11-20T03:08:09;1.20;89.80
12164;DHT22;6145;50.192;10.064;2022-11-20T03:10:36;1.10;89.50
12164;DHT22;6145;50.192;10.064;2022-11-20T03:13:03;2.60;90.30
12164;DHT22;6145;50.192;10.064;2022-11-20T03:15:31;1.10;89.50
12164;DHT22;6145;50.192;10.064;2022-11-20T03:17:58;1.10;89.80
12164;DHT22;6145;50.192;10.064;2022-11-20T03:20:25;1.60;90.00
12164;DHT22;6145;50.192;10.064;2022-11-20T03:22:54;1.90;90.30
12164;DHT22;6145;50.192;10.064;2022-11-20T03:25:21;1.20;90.00
12164;DHT22;6145;50.192;10.064;2022-11-20T03:27:48;1.20;89.70
12164;DHT22;6145;50.192;10.064;2022-11-20T03:30:15;1.10;89.60
12164;DHT22;6145;50.192;10.064;2022-11-20T03:32:43;1.10;89.00
12164;DHT22;6145;50.192;10.064;2022-11-20T03:35:10;1.10;89.20
12164;DHT22;6145;50.192;10.064;2022-11-20T03:37:38;1.10;89.40
12164;DHT22;6145;50.192;10.064;2022-11-20T03:40:06;1.10;89.40
12164;DHT22;6145;50.192;10.064;2022-11-20T03:42:33;1.10;89.60
12164;DHT22;6145;50.192;10.064;2022-11-20T03:45:12;1.10;89.50
12164;DHT22;6145;50.192;10.064;2022-11-20T03:47:39;1.10;89.60
12164;DHT22;6145;50.192;10.064;2022-11-20T03:50:09;1.20;89.80
12164;DHT22;6145;50.192;10.064;2022-11-20T03:52:36;1.10;89.50
12164;DHT22;6145;50.192;10.064;2022-11-20T03:55:03;1.10;89.10
12164;DHT22;6145;50.192;10.064;2022-11-20T03:57:31;1.10;89.20
12164;DHT22;6145;50.192;10.064;2022-11-20T03:59:58;1.10;89.30
12164;DHT22;6145;50.192;10.064;2022-11-20T04:02:24;1.90;89.90
12164;DHT22;6145;50.192;10.064;2022-11-20T04:04:51;1.10;89.50
12164;DHT22;6145;50.192;10.064;2022-11-20T04:07:19;1.10;89.80
12164;DHT22;6145;50.192;10.064;2022-11-20T04:09:46;1.70;90.20
12164;DHT22;6145;50.192;10.064;2022-11-20T04:12:13;2.60;90.50
12164;DHT22;6145;50.192;10.064;2022-11-20T04:14:40;1.10;89.40
12164;DHT22;6145;50.192;10.064;2022-11-20T04:17:07;2.00;90.30
12164;DHT22;6145;50.192;10.064;2022-11-20T04:19:34;1.10;89.70
12164;DHT22;6145;50.192;10.064;2022-11-20T04:22:01;1.10;90.00
12164;DHT22;6145;50.192;10.064;2022-11-20T04:24:29;1.10;90.00
12164;DHT22;6145;50.192;10.064;2022-11-20T04:26:56;1.10;90.10
12164;DHT22;6145;50.192;10.064;2022-11-20T04:29:22;1.10;90.00
12164;DHT22;6145;50.192;10.064;2022-11-20T04:31:49;1.10;89.60
12164;DHT22;6145;50.192;10.064;2022-11-20T04:34:16;2.20;90.20
12164;DHT22;6145;50.192;10.064;2022-11-20T04:36:43;1.10;89.20
12164;DHT22;6145;50.192;10.064;2022-11-20T04:39:14;1.00;89.70
12164;DHT22;6145;50.192;10.064;2022-11-20T04:41:43;1.00;89.80
12164;DHT22;6145;50.192;10.064;2022-11-20T04:44:10;1.10;90.00
12164;DHT22;6145;50.192;10.064;2022-11-20T04:46:38;1.10;90.00
12164;DHT22;6145;50.192;10.064;2022-11-20T04:49:06;1.10;90.10
12164;DHT22;6145;50.192;10.064;2022-11-20T04:51:33;1.10;90.10
12164;DHT22;6145;50.192;10.064;2022-11-20T04:54:00;1.10;90.00
12164;DHT22;6145;50.192;10.064;2022-11-20T04:56:27;1.30;90.00
12164;DHT22;6145;50.192;10.064;2022-11-20T04:58:55;1.10;90.00
12164;DHT22;6145;50.192;10.064;2022-11-20T05:01:26;1.10;89.20
12164;DHT22;6145;50.192;10.064;2022-11-20T05:03:53;1.00;88.60
12164;DHT22;6145;50.192;10.064;2022-11-20T05:06:20;1.70;89.70
12164;DHT22;6145;50.192;10.064;2022-11-20T05:08:48;0.90;89.10
12164;DHT22;6145;50.192;10.064;2022-11-20T05:11:17;1.00;89.30
12164;DHT22;6145;50.192;10.064;2022-11-20T05:13:44;3.00;90.40
12164;DHT22;6145;50.192;10.064;2022-11-20T05:16:14;1.40;90.00
12164;DHT22;6145;50.192;10.064;2022-11-20T05:18:41;1.00;89.80
12164;DHT22;6145;50.192;10.064;2022-11-20T05:21:09;1.00;89.80
12164;DHT22;6145;50.192;10.064;2022-11-20T05:23:36;1.00;89.80
12164;DHT22;6145;50.192;10.064;2022-11-20T05:26:03;1.00;89.60
12164;DHT22;6145;50.192;10.064;2022-11-20T05:28:31;1.00;90.00
12164;DHT22;6145;50.192;10.064;2022-11-20T05:31:04;1.00;90.00
12164;DHT22;6145;50.192;10.064;2022-11-20T05:33:33;1.00;90.00
12164;DHT22;6145;50.192;10.064;2022-11-20T05:36:00;1.00;90.40
12164;DHT22;6145;50.192;10.064;2022-11-20T05:38:27;1.10;90.30
12164;DHT22;6145;50.192;10.064;2022-11-20T05:40:54;1.10;89.80
12164;DHT22;6145;50.192;10.064;2022-11-20T05:43:20;1.10;89.80
12164;DHT22;6145;50.192;10.064;2022-11-20T05:45:52;1.10;89.80
12164;DHT22;6145;50.192;10.064;2022-11-20T05:48:19;1.10;90.00
12164;DHT22;6145;50.192;10.064;2022-11-20T05:50:47;1.10;90.10
12164;DHT22;6145;50.192;10.064;2022-11-20T05:53:14;1.00;89.90
12164;DHT22;6145;50.192;10.064;2022-11-20T05:55:41;1.10;89.60
12164;DHT22;6145;50.192;10.064;2022-11-20T05:58:08;1.10;90.00
12164;DHT22;6145;50.192;10.064;2022-11-20T06:00:35;3.40;91.30
12164;DHT22;6145;50.192;10.064;2022-11-20T06:03:02;1.10;90.10
12164;DHT22;6145;50.192;10.064;2022-11-20T06:05:29;1.20;90.20
12164;DHT22;6145;50.192;10.064;2022-11-20T06:07:57;1.10;90.20
12164;DHT22;6145;50.192;10.064;2022-11-20T06:10:26;1.10;90.20
12164;DHT22;6145;50.192;10.064;2022-11-20T06:12:53;1.10;90.10
12164;DHT22;6145;50.192;10.064;2022-11-20T06:15:23;1.10;90.20
12164;DHT22;6145;50.192;10.064;2022-11-20T06:17:52;1.10;90.10
12164;DHT22;6145;50.192;10.064;2022-11-20T06:20:19;1.10;90.20
12164;DHT22;6145;50.192;10.064;2022-11-20T06:22:45;1.10;90.20
12164;DHT22;6145;50.192;10.064;2022-11-20T06:25:14;1.10;89.90
12164;DHT22;6145;50.192;10.064;2022-11-20T06:27:41;1.10;89.90
12164;DHT22;6145;50.192;10.064;2022-11-20T06:30:09;1.10;90.10
12164;DHT22;6145;50.192;10.064;2022-11-20T06:32:36;1.10;90.10
12164;DHT22;6145;50.192;10.064;2022-11-20T06:35:03;1.10;89.20
12164;DHT22;6145;50.192;10.064;2022-11-20T06:37:30;1.10;89.60
12164;DHT22;6145;50.192;10.064;2022-11-20T06:39:57;1.10;90.10
12164;DHT22;6145;50.192;10.064;2022-11-20T06:42:26;1.70;90.30
12164;DHT22;6145;50.192;10.064;2022-11-20T06:44:52;3.00;91.00
12164;DHT22;6145;50.192;10.064;2022-11-20T06:47:19;1.10;90.20
12164;DHT22;6145;50.192;10.064;2022-11-20T06:49:46;1.50;90.40
12164;DHT22;6145;50.192;10.064;2022-11-20T06:52:13;1.10;90.30
12164;DHT22;6145;50.192;10.064;2022-11-20T06:54:40;2.50;90.80
12164;DHT22;6145;50.192;10.064;2022-11-20T06:57:07;2.50;90.80
12164;DHT22;6145;50.192;10.064;2022-11-20T06:59:35;1.10;90.30
12164;DHT22;6145;50.192;10.064;2022-11-20T07:02:01;2.60;90.70
12164;DHT22;6145;50.192;10.064;2022-11-20T07:04:28;3.50;91.00
12164;DHT22;6145;50.192;10.064;2022-11-20T07:06:55;2.30;90.60
12164;DHT22;6145;50.192;10.064;2022-11-20T07:09:22;1.10;90.10
12164;DHT22;6145;50.192;10.064;2022-11-20T07:11:49;1.10;89.80
12164;DHT22;6145;50.192;10.064;2022-11-20T07:14:16;1.00;89.80
12164;DHT22;6145;50.192;10.064;2022-11-20T07:16:44;1.00;88.70
12164;DHT22;6145;50.192;10.064;2022-11-20T07:19:11;1.00;89.00
12164;DHT22;6145;50.192;10.064;2022-11-20T07:21:38;1.90;90.00
12164;DHT22;6145;50.192;10.064;2022-11-20T07:24:05;2.10;90.20
12164;DHT22;6145;50.192;10.064;2022-11-20T07:26:32;0.70;90.00
12164;DHT22;6145;50.192;10.064;2022-11-20T07:28:58;0.70;90.30
12164;DHT22;6145;50.192;10.064;2022-11-20T07:31:25;0.70;90.50
12164;DHT22;6145;50.192;10.064;2022-11-20T07:33:54;0.80;90.60
12164;DHT22;6145;50.192;10.064;2022-11-20T07:36:21;0.90;90.60
12164;DHT22;6145;50.192;10.064;2022-11-20T07:38:48;0.90;90.70
12164;DHT22;6145;50.192;10.064;2022-11-20T07:41:15;0.90;90.70
12164;DHT22;6145;50.192;10.064;2022-11-20T07:43:41;1.00;90.70
12164;DHT22;6145;50.192;10.064;2022-11-20T07:46:08;1.50;90.90
12164;DHT22;6145;50.192;10.064;2022-11-20T07:48:35;1.00;90.70
12164;DHT22;6145;50.192;10.064;2022-11-20T07:51:03;1.10;90.80
12164;DHT22;6145;50.192;10.064;2022-11-20T07:53:30;1.10;90.70
12164;DHT22;6145;50.192;10.064;2022-11-20T07:55:59;1.10;90.70
12164;DHT22;6145;50.192;10.064;2022-11-20T07:58:26;1.20;90.80
12164;DHT22;6145;50.192;10.064;2022-11-20T08:00:55;2.20;91.10
12164;DHT22;6145;50.192;10.064;2022-11-20T08:03:22;1.20;90.70
12164;DHT22;6145;50.192;10.064;2022-11-20T08:05:49;1.20;90.60
12164;DHT22;6145;50.192;10.064;2022-11-20T08:08:17;1.20;90.30
12164;DHT22;6145;50.192;10.064;2022-11-20T08:10:44;1.20;90.40
12164;DHT22;6145;50.192;10.064;2022-11-20T08:13:11;1.10;90.10
12164;DHT22;6145;50.192;10.064;2022-11-20T08:15:55;1.10;90.20
12164;DHT22;6145;50.192;10.064;2022-11-20T08:18:22;1.00;90.50
12164;DHT22;6145;50.192;10.064;2022-11-20T08:20:49;1.10;90.70
12164;DHT22;6145;50.192;10.064;2022-11-20T08:23:17;1.10;90.70
12164;DHT22;6145;50.192;10.064;2022-11-20T08:25:49;1.20;90.60
12164;DHT22;6145;50.192;10.064;2022-11-20T08:28:16;1.20;90.70
12164;DHT22;6145;50.192;10.064;2022-11-20T08:30:43;1.20;90.70
12164;DHT22;6145;50.192;10.064;2022-11-20T08:33:11;1.20;90.70
12164;DHT22;6145;50.192;10.064;2022-11-20T08:35:38;1.30;90.70
12164;DHT22;6145;50.192;10.064;2022-11-20T08:38:06;1.30;90.60
12164;DHT22;6145;50.192;10.064;2022-11-20T08:40:35;1.20;90.10
12164;DHT22;6145;50.192;10.064;2022-11-20T08:43:01;2.50;90.70
12164;DHT22;6145;50.192;10.064;2022-11-20T08:45:28;1.10;90.50
12164;DHT22;6145;50.192;10.064;2022-11-20T08:48:00;2.80;91.40
12164;DHT22;6145;50.192;10.064;2022-11-20T08:50:27;1.20;90.80
12164;DHT22;6145;50.192;10.064;2022-11-20T08:52:54;1.20;90.60
12164;DHT22;6145;50.192;10.064;2022-11-20T08:55:21;1.30;90.90
12164;DHT22;6145;50.192;10.064;2022-11-20T08:57:49;1.30;90.90
12164;DHT22;6145;50.192;10.064;2022-11-20T09:00:17;2.70;91.50
12164;DHT22;6145;50.192;10.064;2022-11-20T09:02:43;1.30;90.60
12164;DHT22;6145;50.192;10.064;2022-11-20T09:05:10;1.30;90.60
12164;DHT22;6145;50.192;10.064;2022-11-20T09:07:37;1.30;90.50
12164;DHT22;6145;50.192;10.064;2022-11-20T09:10:06;2.60;91.10
12164;DHT22;6145;50.192;10.064;2022-11-20T09:12:33;1.00;90.80
12164;DHT22;6145;50.192;10.064;2022-11-20T09:15:01;1.10;91.00
12164;DHT22;6145;50.192;10.064;2022-11-20T09:17:28;1.10;91.20
12164;DHT22;6145;50.192;10.064;2022-11-20T09:19:55;2.20;91.40
12164;DHT22;6145;50.192;10.064;2022-11-20T09:22:22;3.10;91.90
12164;DHT22;6145;50.192;10.064;2022-11-20T09:24:49;2.70;91.90
12164;DHT22;6145;50.192;10.064;2022-11-20T09:27:16;1.10;91.40
12164;DHT22;6145;50.192;10.064;2022-11-20T09:29:46;2.30;92.00
12164;DHT22;6145;50.192;10.064;2022-11-20T09:32:14;1.20;91.60
12164;DHT22;6145;50.192;10.064;2022-11-20T09:34:41;1.30;91.60
12164;DHT22;6145;50.192;10.064;2022-11-20T09:37:08;1.30;91.70
12164;DHT22;6145;50.192;10.064;2022-11-20T09:39:36;1.30;91.60
12164;DHT22;6145;50.192;10.064;2022-11-20T09:42:25;2.60;92.30
12164;DHT22;6145;50.192;10.064;2022-11-20T09:45:05;1.30;91.70
12164;DHT22;6145;50.192;10.064;2022-11-20T09:47:47;1.30;91.80
12164;DHT22;6145;50.192;10.064;2022-11-20T09:50:25;1.30;92.00
12164;DHT22;6145;50.192;10.064;2022-11-20T09:53:10;1.90;92.30
12164;DHT22;6145;50.192;10.064;2022-11-20T09:55:37;1.90;92.30
12164;DHT22;6145;50.192;10.064;2022-11-20T09:58:06;1.40;92.10
12164;DHT22;6145;50.192;10.064;2022-11-20T10:00:36;1.50;92.20
12164;DHT22;6145;50.192;10.064;2022-11-20T10:03:13;1.50;92.20
12164;DHT22;6145;50.192;10.064;2022-11-20T10:05:44;1.60;92.70
12164;DHT22;6145;50.192;10.064;2022-11-20T10:08:17;1.60;92.40
12164;DHT22;6145;50.192;10.064;2022-11-20T10:10:47;1.50;92.40
12164;DHT22;6145;50.192;10.064;2022-11-20T10:13:27;1.50;92.40
12164;DHT22;6145;50.192;10.064;2022-11-20T10:16:03;1.50;92.50
12164;DHT22;6145;50.192;10.064;2022-11-20T10:18:49;1.60;92.70
12164;DHT22;6145;50.192;10.064;2022-11-20T10:21:26;1.60;92.80
12164;DHT22;6145;50.192;10.064;2022-11-20T10:26:47;1.70;92.90
12164;DHT22;6145;50.192;10.064;2022-11-20T10:29:19;1.70;93.10
12164;DHT22;6145;50.192;10.064;2022-11-20T10:31:52;3.10;93.60
12164;DHT22;6145;50.192;10.064;2022-11-20T10:34:26;1.70;93.00
12164;DHT22;6145;50.192;10.064;2022-11-20T10:36:56;1.60;93.10
12164;DHT22;6145;50.192;10.064;2022-11-20T10:39:31;1.60;93.20
12164;DHT22;6145;50.192;10.064;2022-11-20T10:42:00;1.60;93.40
12164;DHT22;6145;50.192;10.064;2022-11-20T10:44:28;1.60;93.40
12164;DHT22;6145;50.192;10.064;2022-11-20T10:47:30;1.60;93.60
12164;DHT22;6145;50.192;10.064;2022-11-20T10:50:05;1.60;93.70
12164;DHT22;6145;50.192;10.064;2022-11-20T10:52:41;1.70;93.80
12164;DHT22;6145;50.192;10.064;2022-11-20T10:55:25;2.60;94.10
12164;DHT22;6145;50.192;10.064;2022-11-20T10:58:02;1.80;93.80
12164;DHT22;6145;50.192;10.064;2022-11-20T11:00:32;2.10;93.90
12164;DHT22;6145;50.192;10.064;2022-11-20T11:02:59;1.80;93.70
12164;DHT22;6145;50.192;10.064;2022-11-20T11:05:35;1.90;93.70
12164;DHT22;6145;50.192;10.064;2022-11-20T11:08:05;2.40;93.70
12164;DHT22;6145;50.192;10.064;2022-11-20T11:10:50;1.90;93.60
12164;DHT22;6145;50.192;10.064;2022-11-20T11:13:22;1.90;93.70
12164;DHT22;6145;50.192;10.064;2022-11-20T11:15:49;2.30;94.10
12164;DHT22;6145;50.192;10.064;2022-11-20T11:18:24;2.00;93.90
12164;DHT22;6145;50.192;10.064;2022-11-20T11:20:54;2.00;94.00
12164;DHT22;6145;50.192;10.064;2022-11-20T11:23:34;2.10;94.00
12164;DHT22;6145;50.192;10.064;2022-11-20T11:26:04;2.10;94.00
12164;DHT22;6145;50.192;10.064;2022-11-20T11:28:32;2.20;94.00
12164;DHT22;6145;50.192;10.064;2022-11-20T11:30:59;2.10;93.80
12164;DHT22;6145;50.192;10.064;2022-11-20T11:33:27;2.10;93.80
12164;DHT22;6145;50.192;10.064;2022-11-20T11:35:58;2.10;93.20
12164;DHT22;6145;50.192;10.064;2022-11-20T11:38:30;2.00;93.60
12164;DHT22;6145;50.192;10.064;2022-11-20T11:40:57;2.10;94.00
12164;DHT22;6145;50.192;10.064;2022-11-20T11:43:26;2.10;94.00
12164;DHT22;6145;50.192;10.064;2022-11-20T11:46:29;2.20;94.00
12164;DHT22;6145;50.192;10.064;2022-11-20T11:48:59;2.10;94.00
12164;DHT22;6145;50.192;10.064;2022-11-20T11:51:32;2.20;94.10
12164;DHT22;6145;50.192;10.064;2022-11-20T11:54:02;2.30;94.20
12164;DHT22;6145;50.192;10.064;2022-11-20T11:56:33;2.20;93.90
12164;DHT22;6145;50.192;10.064;2022-11-20T11:59:05;2.30;93.90
12164;DHT22;6145;50.192;10.064;2022-11-20T12:01:39;3.80;94.60
12164;DHT22;6145;50.192;10.064;2022-11-20T12:04:16;2.30;94.10
12164;DHT22;6145;50.192;10.064;2022-11-20T12:06:48;4.20;94.90
12164;DHT22;6145;50.192;10.064;2022-11-20T12:09:18;2.40;94.10
12164;DHT22;6145;50.192;10.064;2022-11-20T12:11:51;2.40;94.10
12164;DHT22;6145;50.192;10.064;2022-11-20T12:14:22;2.40;94.10
12164;DHT22;6145;50.192;10.064;2022-11-20T12:16:52;2.50;94.30
12164;DHT22;6145;50.192;10.064;2022-11-20T12:19:21;2.50;94.50
12164;DHT22;6145;50.192;10.064;2022-11-20T12:21:56;2.50;94.70
12164;DHT22;6145;50.192;10.064;2022-11-20T12:24:35;2.60;95.00
12164;DHT22;6145;50.192;10.064;2022-11-20T12:27:31;2.60;94.90
12164;DHT22;6145;50.192;10.064;2022-11-20T12:30:06;2.60;95.00
12164;DHT22;6145;50.192;10.064;2022-11-20T12:38:49;2.80;94.90
12164;DHT22;6145;50.192;10.064;2022-11-20T12:41:25;2.80;94.80
12164;DHT22;6145;50.192;10.064;2022-11-20T12:44:19;2.90;94.70
12164;DHT22;6145;50.192;10.064;2022-11-20T12:47:15;2.90;94.60
12164;DHT22;6145;50.192;10.064;2022-11-20T12:49:50;3.90;94.90
12164;DHT22;6145;50.192;10.064;2022-11-20T12:52:35;2.90;94.40
12164;DHT22;6145;50.192;10.064;2022-11-20T12:55:17;2.90;94.40
12164;DHT22;6145;50.192;10.064;2022-11-20T12:57:53;3.00;94.40
12164;DHT22;6145;50.192;10.064;2022-11-20T13:00:24;4.10;94.80
12164;DHT22;6145;50.192;10.064;2022-11-20T13:03:32;3.00;94.20
12164;DHT22;6145;50.192;10.064;2022-11-20T13:06:10;3.00;94.10
12164;DHT22;6145;50.192;10.064;2022-11-20T13:08:39;3.00;93.90
12164;DHT22;6145;50.192;10.064;2022-11-20T13:11:14;3.00;94.10
12164;DHT22;6145;50.192;10.064;2022-11-20T13:13:51;3.00;94.10
12164;DHT22;6145;50.192;10.064;2022-11-20T13:16:27;3.00;94.10
12164;DHT22;6145;50.192;10.064;2022-11-20T13:19:03;4.40;94.70
12164;DHT22;6145;50.192;10.064;2022-11-20T13:21:38;2.90;94.10
